Time;durP1;ratioP1;P1;durP2;ratioP2;P2;SDS_P1;SDS_P2;PMS_P1;PMS_P2;Temp;Humidity;BMP_temperature;BMP_pressure;BME280_temperature;BME280_humidity;BME280_pressure;Samples;Min_cycle;Max_cycle;Signal;HPM_P1;HPM_P2
2021/01/10 00:02:10;;;;;;;36.87;17.80;;;;;;;1.57;84.36;101397.66;5039370;28;20459;-72
2021/01/10 00:04:35;;;;;;;39.20;18.67;;;;;;;1.55;85.01;101392.41;5039438;28;20491;-72
2021/01/10 00:07:01;;;;;;;33.40;16.93;;;;;;;1.53;84.69;101392.31;5042529;28;20499;-72
2021/01/10 00:09:26;;;;;;;39.05;17.88;;;;;;;1.55;84.86;101389.78;5041438;28;20542;-72
2021/01/10 00:11:51;;;;;;;37.60;17.20;;;;;;;1.47;84.65;101396.38;5040615;28;20041;-72
2021/01/10 00:14:17;;;;;;;37.87;17.87;;;;;;;1.52;84.72;101384.47;5038873;28;20045;-72
2021/01/10 00:16:42;;;;;;;38.25;18.15;;;;;;;1.50;85.01;101380.91;5039941;28;20033;-72
2021/01/10 00:19:07;;;;;;;37.30;17.40;;;;;;;1.58;84.95;101387.31;5042594;28;20115;-72
2021/01/10 00:21:35;;;;;;;42.83;18.97;;;;;;;1.64;84.46;101387.56;5042692;28;20396;-72
2021/01/10 00:24:00;;;;;;;38.33;17.57;;;;;;;1.58;84.68;101387.31;5039080;28;20065;-72
2021/01/10 00:26:34;;;;;;;43.07;18.30;;;;;;;1.62;84.70;101384.00;5039134;28;20447;-72
2021/01/10 00:29:00;;;;;;;37.27;17.73;;;;;;;1.71;84.75;101386.16;5042242;28;20036;-72
2021/01/10 00:31:28;;;;;;;33.20;16.85;;;;;;;1.66;83.88;101392.84;5042423;28;20032;-72
2021/01/10 00:33:53;;;;;;;37.17;16.65;;;;;;;1.57;84.73;101400.25;5039928;28;20040;-72
2021/01/10 00:36:18;;;;;;;31.45;15.90;;;;;;;1.60;84.39;101403.91;5039271;28;20038;-72
2021/01/10 00:38:44;;;;;;;33.28;16.50;;;;;;;1.59;84.08;101401.22;5039789;28;20518;-72
2021/01/10 00:41:09;;;;;;;34.72;16.63;;;;;;;1.64;84.35;101404.91;5043565;28;20025;-72
2021/01/10 00:43:34;;;;;;;31.73;16.30;;;;;;;1.69;84.32;101408.59;5045844;28;20048;-72
2021/01/10 00:46:00;;;;;;;38.10;15.57;;;;;;;1.62;83.73;101414.34;5043060;28;20049;-72
2021/01/10 00:48:25;;;;;;;35.63;16.90;;;;;;;1.61;84.32;101408.25;5041329;28;20037;-72
2021/01/10 00:50:50;;;;;;;37.30;17.57;;;;;;;1.63;83.53;101409.22;5043080;28;20037;-72
2021/01/10 00:53:16;;;;;;;34.93;17.90;;;;;;;1.56;84.62;101412.38;5044434;28;20040;-72
2021/01/10 00:55:41;;;;;;;37.20;17.33;;;;;;;1.65;84.40;101406.69;5045443;28;20545;-72
2021/01/10 00:58:07;;;;;;;36.27;17.30;;;;;;;1.66;84.12;101414.56;5041211;28;20033;-72
2021/01/10 01:00:32;;;;;;;30.38;15.15;;;;;;;1.74;84.09;101407.09;5041156;28;20030;-72
2021/01/10 01:02:58;;;;;;;31.97;15.57;;;;;;;1.70;83.43;101411.28;5044872;28;20039;-72
2021/01/10 01:05:24;;;;;;;31.00;15.30;;;;;;;1.67;83.96;101416.31;5045824;28;20499;-72
2021/01/10 01:07:51;;;;;;;33.83;16.13;;;;;;;1.66;83.91;101411.97;5042536;28;20523;-72
2021/01/10 01:10:22;;;;;;;29.92;15.00;;;;;;;1.67;83.52;101423.25;5040855;28;20033;-72
2021/01/10 01:12:47;;;;;;;34.07;17.47;;;;;;;1.68;83.80;101428.53;5043390;28;20045;-72
2021/01/10 01:15:13;;;;;;;28.80;14.95;;;;;;;1.70;83.45;101429.50;5044368;28;20033;-72
2021/01/10 01:17:39;;;;;;;33.37;15.73;;;;;;;1.68;83.61;101435.47;5044059;28;20044;-72
2021/01/10 01:20:05;;;;;;;31.93;16.47;;;;;;;1.61;83.62;101426.47;5042023;28;20056;-72
2021/01/10 01:22:30;;;;;;;31.53;15.23;;;;;;;1.64;83.20;101430.94;5041800;28;20037;-73
2021/01/10 01:24:55;;;;;;;30.30;15.63;;;;;;;1.59;83.34;101433.31;5044422;28;20057;-72
2021/01/10 01:27:21;;;;;;;29.43;15.30;;;;;;;1.53;83.45;101438.25;5045338;28;20041;-72
2021/01/10 01:29:46;;;;;;;31.45;16.63;;;;;;;1.53;84.11;101439.16;5043990;28;20388;-72
2021/01/10 01:32:11;;;;;;;30.65;14.90;;;;;;;1.48;84.02;101447.56;5041596;28;20029;-72
2021/01/10 01:34:36;;;;;;;26.73;14.10;;;;;;;1.46;84.01;101433.59;5040631;28;20544;-72
2021/01/10 01:37:03;;;;;;;30.47;15.33;;;;;;;1.47;83.72;101438.00;5045118;28;20052;-72
2021/01/10 01:39:28;;;;;;;28.70;14.05;;;;;;;1.53;83.44;101433.94;5045038;28;20052;-72
2021/01/10 01:41:54;;;;;;;31.70;15.77;;;;;;;1.52;83.92;101439.09;5042552;28;20053;-72
2021/01/10 01:44:20;;;;;;;27.35;14.00;;;;;;;1.55;83.46;101441.81;5044783;28;20029;-72
2021/01/10 01:46:45;;;;;;;30.97;14.53;;;;;;;1.43;83.64;101449.06;5044105;28;20537;-72
2021/01/10 01:49:11;;;;;;;30.30;15.50;;;;;;;1.47;83.89;101445.81;5041508;28;20032;-72
2021/01/10 01:51:37;;;;;;;30.75;15.10;;;;;;;1.49;83.77;101436.31;5040932;28;20033;-72
2021/01/10 01:54:06;;;;;;;31.47;15.97;;;;;;;1.55;83.24;101441.81;5033066;28;20460;-72
2021/01/10 01:56:34;;;;;;;25.65;13.18;;;;;;;1.51;83.25;101450.31;5041492;28;20037;-72
2021/01/10 01:59:08;;;;;;;32.07;15.40;;;;;;;1.43;83.74;101443.88;5044327;28;20029;-73
2021/01/10 02:01:35;;;;;;;29.07;15.23;;;;;;;1.47;83.49;101449.28;5043594;28;20033;-73
2021/01/10 02:04:20;;;;;;;31.13;15.37;;;;;;;1.50;84.10;101453.75;5041183;28;20029;-72
2021/01/10 02:06:59;;;;;;;31.27;15.10;;;;;;;1.53;83.66;101443.47;5042280;28;20041;-72
2021/01/10 02:09:25;;;;;;;35.25;16.63;;;;;;;1.45;83.95;101450.03;5044625;28;20061;-72
2021/01/10 02:11:53;;;;;;;28.23;14.07;;;;;;;1.55;83.67;101447.03;5042744;28;20445;-72
2021/01/10 02:14:21;;;;;;;28.40;14.45;;;;;;;1.50;83.69;101448.53;5040750;28;20044;-72
2021/01/10 02:16:48;;;;;;;28.17;14.57;;;;;;;1.53;82.98;101443.47;5042273;28;20466;-72
2021/01/10 02:19:20;;;;;;;28.80;14.23;;;;;;;1.46;83.19;101449.19;5044317;28;20033;-72
2021/01/10 02:21:48;;;;;;;29.73;14.52;;;;;;;1.42;83.68;101447.31;5043268;28;20033;-72
2021/01/10 02:24:14;;;;;;;26.05;13.82;;;;;;;1.48;83.36;101447.56;5040530;28;20029;-72
2021/01/10 02:26:41;;;;;;;25.00;14.45;;;;;;;1.46;83.26;101454.41;5041228;28;20411;-72
2021/01/10 02:29:07;;;;;;;28.93;14.63;;;;;;;1.43;82.96;101449.94;5044319;28;20043;-72
2021/01/10 02:31:37;;;;;;;28.48;15.10;;;;;;;1.46;82.44;101457.00;5044092;28;20040;-72
2021/01/10 02:34:04;;;;;;;25.70;13.50;;;;;;;1.38;82.92;101460.97;5040361;28;20041;-72
2021/01/10 02:36:41;;;;;;;25.20;13.17;;;;;;;1.36;82.65;101460.00;5040664;28;20488;-72
2021/01/10 02:39:29;;;;;;;29.10;13.27;;;;;;;1.26;83.67;101459.59;5032879;28;20091;-72
2021/01/10 02:42:02;;;;;;;33.40;16.27;;;;;;;1.31;83.34;101452.00;5042960;28;20041;-72
2021/01/10 02:44:35;;;;;;;30.27;14.20;;;;;;;1.36;83.19;101454.81;5043743;28;20044;-72
2021/01/10 02:47:00;;;;;;;29.67;15.03;;;;;;;1.31;83.41;101459.81;5040643;28;20388;-73
2021/01/10 02:49:26;;;;;;;29.43;13.70;;;;;;;1.35;83.80;101461.72;5040370;28;20042;-72
2021/01/10 02:51:52;;;;;;;32.80;15.13;;;;;;;1.30;83.72;101461.50;5042165;28;20553;-72
2021/01/10 02:54:19;;;;;;;32.60;15.53;;;;;;;1.31;83.99;101471.09;5043493;28;20491;-72
2021/01/10 02:56:53;;;;;;;31.27;14.27;;;;;;;1.26;84.17;101467.41;5042769;28;20028;-72
2021/01/10 02:59:24;;;;;;;29.35;14.57;;;;;;;1.34;83.81;101466.84;5040282;28;20099;-72
2021/01/10 03:01:52;;;;;;;36.38;16.95;;;;;;;1.21;84.03;101465.41;5041697;28;20047;-72
2021/01/10 03:04:17;;;;;;;34.37;15.33;;;;;;;1.29;83.60;101458.84;5042472;28;20631;-72
2021/01/10 03:06:43;;;;;;;37.50;15.50;;;;;;;1.30;84.08;101474.50;5041642;28;20140;-72
2021/01/10 03:09:11;;;;;;;26.90;14.40;;;;;;;1.35;83.86;101464.31;5039949;28;20056;-72
2021/01/10 03:11:37;;;;;;;30.60;15.43;;;;;;;1.28;83.12;101462.25;5038757;28;20648;-72
2021/01/10 03:14:03;;;;;;;29.83;14.47;;;;;;;1.26;83.27;101467.41;5031552;28;20039;-72
2021/01/10 03:16:29;;;;;;;30.87;13.90;;;;;;;1.21;83.82;101462.81;5039931;28;20033;-72
2021/01/10 03:18:54;;;;;;;32.17;16.63;;;;;;;1.20;84.01;101459.28;5042129;28;20036;-73
2021/01/10 03:21:19;;;;;;;31.10;14.60;;;;;;;1.20;83.66;101467.09;5043293;28;20115;-72
2021/01/10 03:23:45;;;;;;;31.10;15.37;;;;;;;1.17;83.95;101459.16;5041855;28;20037;-72
2021/01/10 03:26:10;;;;;;;32.90;15.07;;;;;;;1.20;83.92;101461.00;5039792;28;20087;-72
2021/01/10 03:28:35;;;;;;;30.73;14.60;;;;;;;1.25;83.91;101463.00;5039713;28;20033;-72
2021/01/10 03:31:01;;;;;;;30.77;13.93;;;;;;;1.35;83.65;101464.31;5042802;28;20070;-72
2021/01/10 03:33:26;;;;;;;28.48;14.10;;;;;;;1.47;83.13;101458.81;5042732;28;20041;-72
2021/01/10 03:35:51;;;;;;;27.97;13.80;;;;;;;1.47;83.16;101458.81;5039965;28;20037;-72
2021/01/10 03:38:17;;;;;;;28.60;14.30;;;;;;;1.49;82.90;101457.13;5042029;28;20040;-72
2021/01/10 03:40:42;;;;;;;27.85;14.45;;;;;;;1.58;82.72;101457.56;5040103;28;20042;-72
2021/01/10 03:43:07;;;;;;;31.17;14.37;;;;;;;1.58;82.60;101461.91;5042738;28;20028;-72
2021/01/10 03:45:33;;;;;;;29.67;13.88;;;;;;;1.49;82.79;101457.13;5042896;28;20037;-73
2021/01/10 03:47:58;;;;;;;32.45;15.05;;;;;;;1.53;82.75;101454.75;5040184;28;20040;-73
2021/01/10 03:50:24;;;;;;;28.67;14.27;;;;;;;1.53;82.50;101452.16;5039410;28;20415;-72
2021/01/10 03:52:49;;;;;;;27.67;13.33;;;;;;;1.55;82.27;101452.25;5040759;28;20041;-72
2021/01/10 03:55:14;;;;;;;28.30;13.77;;;;;;;1.61;82.11;101447.28;5042848;28;20029;-72
2021/01/10 03:57:40;;;;;;;26.50;13.87;;;;;;;1.64;81.48;101455.22;5042560;28;20037;-73
2021/01/10 04:00:07;;;;;;;25.57;13.17;;;;;;;1.60;81.27;101450.72;5039360;28;20056;-72
2021/01/10 04:02:33;;;;;;;23.90;13.50;;;;;;;1.58;81.15;101464.50;5039126;28;20099;-72
2021/01/10 04:04:58;;;;;;;25.63;13.60;;;;;;;1.49;81.10;101455.47;5042163;28;20033;-73
2021/01/10 04:07:24;;;;;;;26.90;13.50;;;;;;;1.59;81.55;101450.66;5042785;28;20115;-72
2021/01/10 04:09:49;;;;;;;27.83;14.37;;;;;;;1.62;81.28;101451.66;5041048;28;20052;-72
2021/01/10 04:12:14;;;;;;;27.10;14.17;;;;;;;1.70;80.88;101452.94;5039092;28;20044;-72
2021/01/10 04:14:40;;;;;;;27.97;15.20;;;;;;;1.75;81.20;101459.19;5039910;28;20037;-72
2021/01/10 04:17:05;;;;;;;30.63;14.00;;;;;;;1.75;80.65;101455.72;5046810;28;20033;-72
2021/01/10 04:19:30;;;;;;;28.85;14.85;;;;;;;1.77;80.67;101468.81;5046710;28;20090;-72
2021/01/10 04:21:56;;;;;;;29.45;14.93;;;;;;;1.73;80.69;101458.25;5044154;28;20507;-72
2021/01/10 04:24:21;;;;;;;28.33;13.80;;;;;;;1.70;80.76;101460.72;5041502;28;20060;-73
2021/01/10 04:26:48;;;;;;;26.73;13.20;;;;;;;1.68;80.71;101459.78;5044369;28;20512;-72
2021/01/10 04:29:17;;;;;;;29.03;15.40;;;;;;;1.74;80.93;101464.34;5046267;28;20045;-72
2021/01/10 04:31:42;;;;;;;27.30;14.32;;;;;;;1.74;80.63;101467.84;5045627;28;20063;-72
2021/01/10 04:34:08;;;;;;;26.13;13.45;;;;;;;1.83;80.56;101469.06;5042722;28;20432;-72
2021/01/10 04:36:33;;;;;;;25.70;12.57;;;;;;;1.92;80.85;101472.09;5042961;28;20067;-72
2021/01/10 04:38:58;;;;;;;23.83;13.15;;;;;;;1.97;80.17;101473.19;5045494;28;20883;-73
2021/01/10 04:41:25;;;;;;;27.10;15.07;;;;;;;1.89;80.06;101471.97;5046281;28;20521;-72
2021/01/10 04:43:54;;;;;;;25.90;14.73;;;;;;;1.90;80.15;101471.13;5035499;28;20044;-73
2021/01/10 04:46:21;;;;;;;27.15;13.75;;;;;;;1.93;79.97;101473.84;5040174;28;20068;-72
2021/01/10 04:48:48;;;;;;;26.00;13.82;;;;;;;1.85;80.09;101480.44;5044961;28;20048;-72
2021/01/10 04:51:14;;;;;;;26.15;13.93;;;;;;;1.81;80.06;101475.91;5042557;28;20377;-72
2021/01/10 04:53:43;;;;;;;25.63;12.90;;;;;;;1.75;80.09;101477.41;5042581;28;20033;-72
2021/01/10 04:56:09;;;;;;;27.48;13.80;;;;;;;1.67;80.60;101486.59;5044699;28;20079;-72
2021/01/10 04:58:35;;;;;;;26.58;13.70;;;;;;;1.56;80.98;101484.34;5045892;28;20087;-73
2021/01/10 05:01:01;;;;;;;28.33;14.75;;;;;;;1.57;80.52;101481.78;5042772;28;20037;-72
2021/01/10 05:03:30;;;;;;;27.20;14.13;;;;;;;1.54;81.20;101484.25;5042060;28;20039;-72
2021/01/10 05:05:55;;;;;;;28.40;14.23;;;;;;;1.56;81.17;101481.75;5044773;28;20038;-73
2021/01/10 05:08:21;;;;;;;25.37;13.77;;;;;;;1.64;81.03;101481.25;5045802;28;20116;-73
2021/01/10 05:10:46;;;;;;;27.30;14.43;;;;;;;1.66;80.88;101482.22;5044558;28;20048;-72
2021/01/10 05:13:11;;;;;;;25.67;13.57;;;;;;;1.61;80.92;101486.31;5041973;28;20053;-72
2021/01/10 05:15:37;;;;;;;26.73;13.18;;;;;;;1.66;80.66;101473.53;5041046;28;20045;-73
2021/01/10 05:18:03;;;;;;;26.55;13.95;;;;;;;1.59;81.09;101484.47;5045383;28;20575;-72
2021/01/10 05:20:30;;;;;;;26.00;13.13;;;;;;;1.60;80.61;101478.44;5045584;28;20028;-73
2021/01/10 05:22:57;;;;;;;27.02;14.13;;;;;;;1.56;80.73;101473.94;5042693;28;20033;-73
2021/01/10 05:25:22;;;;;;;28.98;14.88;;;;;;;1.60;80.65;101471.53;5042047;28;20045;-72
2021/01/10 05:27:51;;;;;;;23.88;12.52;;;;;;;1.65;80.47;101471.72;5042587;28;20029;-72
2021/01/10 05:30:26;;;;;;;26.27;14.13;;;;;;;1.60;80.48;101473.22;5045311;28;20119;-72
2021/01/10 05:33:03;;;;;;;28.17;14.07;;;;;;;1.56;80.60;101484.34;5041993;28;20025;-72
2021/01/10 05:35:28;;;;;;;28.00;13.32;;;;;;;1.56;80.62;101480.03;5041921;28;20029;-72
2021/01/10 05:37:58;;;;;;;25.35;13.63;;;;;;;1.56;80.66;101480.03;5043777;28;20036;-72
2021/01/10 05:40:31;;;;;;;30.98;14.65;;;;;;;1.59;80.76;101479.28;5045153;28;20117;-73
2021/01/10 05:43:06;;;;;;;26.70;13.15;;;;;;;1.53;80.85;101479.88;5042202;28;20483;-73
2021/01/10 05:45:33;;;;;;;35.00;16.27;;;;;;;1.57;81.00;101473.09;5047382;28;20495;-73
2021/01/10 05:48:08;;;;;;;27.10;13.60;;;;;;;1.55;81.10;101473.06;5045047;28;20040;-72
2021/01/10 05:50:33;;;;;;;26.87;14.00;;;;;;;1.54;81.06;101471.25;5045082;28;20064;-73
2021/01/10 05:52:59;;;;;;;25.93;13.20;;;;;;;1.58;81.38;101467.97;5041812;28;20061;-72
2021/01/10 05:55:24;;;;;;;27.10;13.52;;;;;;;1.59;80.97;101476.66;5041471;28;20045;-72
2021/01/10 05:57:54;;;;;;;29.90;14.80;;;;;;;1.53;81.49;101474.69;5042951;28;20403;-72
2021/01/10 06:00:30;;;;;;;32.38;14.60;;;;;;;1.54;81.19;101477.34;5044822;28;20468;-72
2021/01/10 06:02:59;;;;;;;24.17;12.80;;;;;;;1.60;80.95;101479.34;5042158;28;20043;-72
2021/01/10 06:05:25;;;;;;;26.25;13.63;;;;;;;1.56;81.29;101476.53;5041254;28;20033;-73
2021/01/10 06:07:50;;;;;;;24.35;12.90;;;;;;;1.55;80.63;101475.66;5042859;28;20137;-73
2021/01/10 06:10:29;;;;;;;25.20;13.98;;;;;;;1.48;80.75;101482.28;5044709;28;20033;-72
2021/01/10 06:13:02;;;;;;;26.50;13.93;;;;;;;1.50;80.60;101480.63;5042158;28;20128;-72
2021/01/10 06:15:31;;;;;;;26.95;13.52;;;;;;;1.51;81.22;101489.31;5041095;28;20037;-72
2021/01/10 06:18:00;;;;;;;26.70;13.50;;;;;;;1.55;80.87;101493.88;5043541;28;20029;-72
2021/01/10 06:20:27;;;;;;;23.43;12.93;;;;;;;1.52;80.94;101494.63;5044333;28;20162;-72
2021/01/10 06:22:57;;;;;;;23.52;12.68;;;;;;;1.53;80.36;101505.91;5042090;28;20033;-72
2021/01/10 06:25:25;;;;;;;22.97;12.60;;;;;;;1.49;80.60;101497.09;5040872;28;20408;-72
2021/01/10 06:28:11;;;;;;;22.67;11.90;;;;;;;1.51;80.51;101502.34;5042434;28;20469;-72
2021/01/10 06:30:40;;;;;;;20.63;11.90;;;;;;;1.54;80.05;101498.16;5044228;28;20671;-72
2021/01/10 06:33:12;;;;;;;24.33;12.07;;;;;;;1.60;79.83;101499.25;5032501;28;20515;-71
2021/01/10 06:35:40;;;;;;;22.88;11.68;;;;;;;1.57;79.54;101497.41;5040784;28;20056;-71
2021/01/10 06:38:09;;;;;;;22.43;12.80;;;;;;;1.50;79.59;101498.84;5032617;28;20029;-70
2021/01/10 06:40:41;;;;;;;25.77;12.77;;;;;;;1.39;80.63;101499.16;5034459;28;20034;-72
2021/01/10 06:43:08;;;;;;;23.42;12.55;;;;;;;1.38;80.46;101506.06;5036169;28;20039;-72
2021/01/10 06:45:42;;;;;;;23.03;11.80;;;;;;;1.43;79.67;101508.91;5043912;28;20045;-72
2021/01/10 06:48:08;;;;;;;22.17;12.30;;;;;;;1.45;79.88;101502.06;5032900;28;20071;-71
2021/01/10 06:50:35;;;;;;;22.80;12.20;;;;;;;1.40;79.76;101508.75;5040424;28;20124;-72
2021/01/10 06:53:08;;;;;;;24.17;12.27;;;;;;;1.36;79.37;101510.31;5043024;28;20037;-71
2021/01/10 06:55:34;;;;;;;20.10;10.70;;;;;;;1.34;80.32;101514.56;5043821;28;20051;-72
2021/01/10 06:58:06;;;;;;;22.37;11.70;;;;;;;1.34;80.06;101513.66;5040865;28;20038;-72
2021/01/10 07:00:54;;;;;;;23.33;11.75;;;;;;;1.40;79.81;101519.16;5040377;28;20029;-72
2021/01/10 07:03:19;;;;;;;22.48;12.05;;;;;;;1.33;79.58;101517.09;5033908;28;20048;-72
2021/01/10 07:05:58;;;;;;;21.23;10.85;;;;;;;1.33;80.00;101517.09;5041015;28;20033;-72
2021/01/10 07:08:53;;;;;;;26.33;12.53;;;;;;;1.40;79.56;101521.78;5043463;28;20036;-72
2021/01/10 07:11:22;;;;;;;21.83;12.23;;;;;;;1.36;79.76;101523.31;5033724;28;20045;-72
2021/01/10 07:13:51;;;;;;;25.40;12.10;;;;;;;1.46;79.86;101520.31;5040914;28;20038;-71
2021/01/10 07:16:20;;;;;;;23.42;13.05;;;;;;;1.45;79.96;101522.88;5043368;28;20544;-72
2021/01/10 07:18:57;;;;;;;26.10;13.17;;;;;;;1.46;79.76;101519.44;5042420;28;20039;-72
2021/01/10 07:21:29;;;;;;;25.88;13.10;;;;;;;1.40;79.70;101535.66;5039877;28;20036;-72
2021/01/10 07:24:16;;;;;;;26.20;13.63;;;;;;;1.29;80.37;101524.75;5041794;28;20484;-72
2021/01/10 07:26:56;;;;;;;22.75;12.55;;;;;;;1.32;79.91;101526.59;5041477;28;20037;-72
2021/01/10 07:29:31;;;;;;;25.37;13.07;;;;;;;1.26;80.47;101527.22;5039690;28;20033;-71
2021/01/10 07:32:11;;;;;;;26.87;14.30;;;;;;;1.32;80.13;101526.59;5042251;28;20037;-72
2021/01/10 07:34:56;;;;;;;27.00;14.00;;;;;;;1.26;78.97;101532.41;5043110;28;20040;-72
2021/01/10 07:37:25;;;;;;;26.07;13.83;;;;;;;1.33;79.05;101535.28;5033675;28;20049;-71
2021/01/10 07:39:54;;;;;;;25.83;13.63;;;;;;;1.22;79.10;101540.00;5041038;28;20030;-72
2021/01/10 07:42:25;;;;;;;27.03;13.53;;;;;;;1.25;78.83;101535.81;5043018;28;20080;-71
2021/01/10 07:44:58;;;;;;;25.77;14.03;;;;;;;1.40;78.64;101543.47;5041316;28;20487;-72
2021/01/10 07:47:29;;;;;;;27.43;13.00;;;;;;;1.40;78.40;101540.88;5041705;28;20099;-71
2021/01/10 07:49:57;;;;;;;29.87;14.27;;;;;;;1.44;78.01;101547.09;5038810;28;20128;-72
2021/01/10 07:52:41;;;;;;;27.30;13.57;;;;;;;1.33;78.18;101541.38;5042645;28;20045;-72
2021/01/10 07:55:21;;;;;;;25.23;13.53;;;;;;;1.27;77.96;101542.00;5031611;28;20033;-71
2021/01/10 07:58:13;;;;;;;26.10;14.50;;;;;;;1.28;78.12;101546.38;5040482;28;20060;-71
2021/01/10 08:00:47;;;;;;;26.08;14.20;;;;;;;1.27;77.71;101555.00;5039702;28;20073;-71
2021/01/10 08:03:23;;;;;;;28.70;15.67;;;;;;;1.26;78.32;101550.63;5032133;28;20045;-72
2021/01/10 08:06:00;;;;;;;24.70;13.03;;;;;;;1.35;77.40;101546.66;5040690;28;20029;-71
2021/01/10 08:08:43;;;;;;;24.40;13.47;;;;;;;1.39;77.25;101551.19;5042759;28;20461;-72
2021/01/10 08:11:09;;;;;;;27.37;14.87;;;;;;;1.33;77.89;101548.31;5031704;28;20069;-71
2021/01/10 08:13:44;;;;;;;23.37;12.80;;;;;;;1.37;77.96;101555.44;5038948;28;20037;-72
2021/01/10 08:16:14;;;;;;;25.17;13.40;;;;;;;1.30;77.74;101556.84;5031929;28;20044;-72
2021/01/10 08:18:43;;;;;;;25.63;14.03;;;;;;;1.35;78.19;101559.69;5039311;28;20041;-72
2021/01/10 08:21:13;;;;;;;27.92;14.23;;;;;;;1.31;78.00;101554.34;5042736;28;20025;-72
2021/01/10 08:23:40;;;;;;;25.83;14.97;;;;;;;1.45;78.46;101559.28;5042185;28;20135;-71
2021/01/10 08:26:14;;;;;;;26.20;13.27;;;;;;;1.41;77.63;101562.56;5031346;28;20026;-72
2021/01/10 08:28:49;;;;;;;27.37;14.43;;;;;;;1.38;78.19;101559.81;5039304;28;20033;-72
2021/01/10 08:31:18;;;;;;;25.97;15.47;;;;;;;1.36;77.93;101564.03;5042502;28;20033;-71
2021/01/10 08:33:44;;;;;;;22.87;13.40;;;;;;;1.31;77.45;101562.13;5040192;28;20067;-72
2021/01/10 08:36:13;;;;;;;26.67;14.83;;;;;;;1.25;77.83;101567.03;5039001;28;20484;-72
2021/01/10 08:38:56;;;;;;;27.27;14.73;;;;;;;1.28;77.33;101575.00;5038932;28;20041;-72
2021/01/10 08:41:26;;;;;;;27.57;14.83;;;;;;;1.34;77.77;101576.06;5033347;28;20584;-72
2021/01/10 08:44:00;;;;;;;25.23;14.70;;;;;;;1.42;77.47;101575.66;5040365;28;20037;-72
2021/01/10 08:46:29;;;;;;;26.97;15.27;;;;;;;1.50;78.00;101574.31;5042286;28;20044;-71
2021/01/10 08:48:55;;;;;;;22.83;13.07;;;;;;;1.52;77.37;101576.97;5040196;28;20047;-72
2021/01/10 08:51:35;;;;;;;25.30;14.30;;;;;;;1.46;76.83;101572.34;5038874;28;20030;-72
2021/01/10 08:54:07;;;;;;;25.38;14.88;;;;;;;1.47;76.89;101578.47;5041893;28;20041;-72
2021/01/10 08:56:32;;;;;;;24.45;13.82;;;;;;;1.39;76.10;101583.31;5042408;28;20040;-71
2021/01/10 08:58:57;;;;;;;20.20;12.13;;;;;;;1.40;75.05;101589.41;5039710;28;20491;-72
2021/01/10 09:01:24;;;;;;;22.60;13.53;;;;;;;1.39;75.69;101585.00;5038892;28;20025;-72
2021/01/10 09:03:58;;;;;;;22.03;12.77;;;;;;;1.38;75.11;101583.22;5042417;28;20037;-71
2021/01/10 09:06:28;;;;;;;24.43;14.23;;;;;;;1.51;75.43;101585.59;5045883;28;20045;-72
2021/01/10 09:09:01;;;;;;;25.80;15.00;;;;;;;1.55;75.56;101592.72;5043826;28;20055;-72
2021/01/10 09:11:28;;;;;;;25.63;14.17;;;;;;;1.46;76.09;101592.28;5042158;28;20087;-71
2021/01/10 09:13:57;;;;;;;23.57;13.53;;;;;;;1.38;75.57;101591.03;5043986;28;20041;-72
2021/01/10 09:16:25;;;;;;;22.53;13.33;;;;;;;1.35;76.12;101588.28;5045671;28;20118;-72
2021/01/10 09:18:54;;;;;;;24.70;13.57;;;;;;;1.38;76.13;101596.22;5044092;28;20581;-71
2021/01/10 09:21:25;;;;;;;23.93;14.63;;;;;;;1.34;75.92;101592.59;5042207;28;20034;-71
2021/01/10 09:23:54;;;;;;;23.55;13.25;;;;;;;1.42;75.59;101598.19;5043447;28;20041;-72
2021/01/10 09:26:27;;;;;;;22.83;13.63;;;;;;;1.41;75.17;101598.97;5045519;28;20068;-72
2021/01/10 09:28:53;;;;;;;21.15;13.02;;;;;;;1.51;74.23;101601.19;5043577;28;20043;-71
2021/01/10 09:31:18;;;;;;;19.60;12.13;;;;;;;1.55;74.83;101603.16;5041943;28;20416;-71
2021/01/10 09:33:43;;;;;;;21.00;12.47;;;;;;;1.62;74.35;101600.00;5042225;28;20037;-72
2021/01/10 09:36:16;;;;;;;20.42;11.57;;;;;;;1.67;73.92;101602.81;5045362;28;20120;-71
2021/01/10 09:38:52;;;;;;;;;;;;;;;1.52;73.10;101598.69;5045224;28;20083;-72
2021/01/10 09:41:18;;;;;;;20.57;12.90;;;;;;;1.39;74.27;101601.53;5042026;28;20022;-72
2021/01/10 09:43:54;;;;;;;20.50;11.83;;;;;;;1.33;74.76;101608.13;5041998;28;20064;-72
2021/01/10 09:46:37;;;;;;;18.10;11.30;;;;;;;1.26;75.37;101602.63;5050760;28;20431;-71
2021/01/10 09:49:08;;;;;;;19.08;11.57;;;;;;;1.30;75.03;101601.06;5041792;28;20041;-71
2021/01/10 09:51:39;;;;;;;19.20;11.73;;;;;;;1.19;75.34;101603.13;5041475;28;20152;-72
2021/01/10 09:54:11;;;;;;;19.43;11.73;;;;;;;1.29;75.46;101604.50;5033119;28;20044;-72
2021/01/10 09:56:39;;;;;;;16.75;10.15;;;;;;;1.25;74.50;101603.44;5041478;28;20037;-72
2021/01/10 09:59:38;;;;;;;17.27;9.87;;;;;;;1.20;74.84;101604.03;5033435;28;20039;-72
2021/01/10 10:02:10;;;;;;;17.30;10.17;;;;;;;1.30;74.55;101608.88;5044718;28;20096;-71
2021/01/10 10:04:36;;;;;;;19.05;10.93;;;;;;;1.29;75.04;101607.97;5044653;28;20041;-72
2021/01/10 10:07:03;;;;;;;18.93;11.03;;;;;;;1.49;74.54;101605.44;5041676;28;20041;-72
2021/01/10 10:09:51;;;;;;;18.90;11.23;;;;;;;1.41;74.33;101609.38;5041274;28;20090;-72
2021/01/10 10:12:18;;;;;;;18.70;11.30;;;;;;;1.39;74.36;101600.59;5034271;28;20033;-72
2021/01/10 10:15:09;;;;;;;17.70;10.50;;;;;;;1.41;74.06;101602.47;5041529;28;20075;-72
2021/01/10 10:17:37;;;;;;;15.80;8.93;;;;;;;1.46;73.95;101603.56;5043351;28;20496;-72
2021/01/10 10:20:06;;;;;;;18.00;11.20;;;;;;;1.49;73.33;101601.16;5041240;28;20053;-70
2021/01/10 10:22:34;;;;;;;18.27;11.23;;;;;;;1.35;73.25;101603.88;5040722;28;20136;-72
2021/01/10 10:25:03;;;;;;;20.30;11.23;;;;;;;1.42;73.77;101600.78;5043670;28;20055;-72
2021/01/10 10:27:30;;;;;;;20.93;11.60;;;;;;;1.49;73.39;101595.03;5044373;28;20056;-72
2021/01/10 10:29:56;;;;;;;19.60;12.27;;;;;;;1.64;73.72;101598.34;5041985;28;20048;-71
2021/01/10 10:32:22;;;;;;;21.00;11.40;;;;;;;1.64;72.92;101594.88;5040575;28;20484;-72
2021/01/10 10:34:48;;;;;;;21.73;12.73;;;;;;;1.55;73.32;101590.13;5041705;28;20041;-71
2021/01/10 10:37:15;;;;;;;21.50;13.40;;;;;;;1.52;73.95;101587.41;5042878;28;20087;-72
2021/01/10 10:39:40;;;;;;;19.65;11.75;;;;;;;1.67;73.78;101587.19;5043906;28;20123;-72
2021/01/10 10:42:10;;;;;;;19.33;12.18;;;;;;;1.63;72.96;101580.97;5040656;28;20053;-71
2021/01/10 10:44:36;;;;;;;20.55;11.63;;;;;;;1.69;73.91;101573.44;5040547;28;20067;-72
2021/01/10 10:47:01;;;;;;;22.52;13.00;;;;;;;1.73;73.64;101566.69;5043420;28;20444;-72
2021/01/10 10:49:28;;;;;;;21.63;13.05;;;;;;;1.78;73.65;101572.06;5042575;28;20098;-72
2021/01/10 10:51:54;;;;;;;24.20;14.80;;;;;;;1.72;73.43;101577.91;5041661;28;20120;-72
2021/01/10 10:54:19;;;;;;;25.35;15.13;;;;;;;1.66;73.60;101578.50;5040087;28;20188;-71
2021/01/10 10:56:46;;;;;;;24.37;15.27;;;;;;;1.73;73.63;101577.97;5041324;28;20060;-72
2021/01/10 10:59:12;;;;;;;21.67;13.47;;;;;;;1.80;72.99;101576.53;5043801;28;20048;-72
2021/01/10 11:01:45;;;;;;;23.02;14.48;;;;;;;1.78;73.39;101569.47;5042517;28;20028;-71
2021/01/10 11:04:11;;;;;;;24.17;14.13;;;;;;;1.95;73.20;101564.22;5032836;28;20036;-72
2021/01/10 11:06:37;;;;;;;24.52;15.00;;;;;;;1.94;73.12;101574.59;5040182;28;20431;-72
2021/01/10 11:09:05;;;;;;;21.35;12.55;;;;;;;2.12;73.04;101562.41;5043364;28;20040;-72
2021/01/10 11:11:45;;;;;;;21.17;13.30;;;;;;;2.29;71.79;101559.63;5043500;28;20037;-72
2021/01/10 11:14:11;;;;;;;19.65;12.32;;;;;;;2.39;72.10;101554.88;5032509;28;20127;-72
2021/01/10 11:16:37;;;;;;;20.83;13.63;;;;;;;2.32;71.67;101557.16;5039961;28;20546;-72
2021/01/10 11:19:07;;;;;;;21.75;13.52;;;;;;;2.50;72.02;101559.69;5043245;28;20495;-72
2021/01/10 11:21:35;;;;;;;21.55;13.75;;;;;;;2.60;71.40;101552.31;5043370;28;20076;-71
2021/01/10 11:24:02;;;;;;;23.00;13.80;;;;;;;2.57;70.93;101551.31;5039773;28;20079;-71
2021/01/10 11:26:28;;;;;;;20.73;14.02;;;;;;;2.57;71.38;101544.38;5039561;28;20758;-72